Time;durP1;ratioP1;P1;durP2;ratioP2;P2;SDS_P1;SDS_P2;PMS_P1;PMS_P2;Temp;Humidity;BMP_temperature;BMP_pressure;BME280_temperature;BME280_humidity;BME280_pressure;Samples;Min_cycle;Max_cycle;Signal;HPM_P1;HPM_P2
2022/04/16 00:03:25;;;;;;;2.50;2.00;;;17.00;64.00;;;;;;10475137;28;20033;-57
2022/04/16 00:08:28;;;;;;;4.30;2.20;;;16.90;64.00;;;;;;10459838;28;20116;-57
2022/04/16 00:13:29;;;;;;;2.97;2.00;;;16.90;64.10;;;;;;10458344;28;20025;-57
2022/04/16 00:18:30;;;;;;;2.90;1.90;;;16.90;63.90;;;;;;10458300;28;20045;-57
2022/04/16 00:23:31;;;;;;;2.22;1.85;;;17.00;63.90;;;;;;10469246;28;20482;-56
2022/04/16 00:28:31;;;;;;;2.75;1.95;;;17.00;63.60;;;;;;10458898;28;20052;-57
2022/04/16 00:33:33;;;;;;;2.53;1.90;;;17.00;63.50;;;;;;10458427;28;20083;-56
2022/04/16 00:38:34;;;;;;;4.38;2.05;;;17.00;64.20;;;;;;10458514;28;20047;-57
2022/04/16 00:43:35;;;;;;;4.00;1.80;;;17.00;63.60;;;;;;10457051;28;20103;-57
2022/04/16 00:48:36;;;;;;;1.92;1.50;;;17.00;63.50;;;;;;10458424;28;20146;-57
2022/04/16 00:53:36;;;;;;;4.20;2.35;;;17.00;63.70;;;;;;10457395;28;20036;-56
2022/04/16 00:58:41;;;;;;;3.80;1.83;;;17.00;63.70;;;;;;10456591;28;20044;-57
2022/04/16 01:03:43;;;;;;;2.25;1.77;;;16.90;63.70;;;;;;10456060;28;20461;-57
2022/04/16 01:08:47;;;;;;;2.97;2.10;;;17.00;63.40;;;;;;10457568;28;20075;-56
2022/04/16 01:13:48;;;;;;;2.97;1.92;;;17.10;63.20;;;;;;10457143;28;20112;-56
2022/04/16 01:18:49;;;;;;;3.05;2.38;;;17.10;63.10;;;;;;10456901;28;20208;-57
2022/04/16 01:23:50;;;;;;;3.97;2.20;;;17.10;62.90;;;;;;10466078;28;20021;-57
2022/04/16 01:28:52;;;;;;;3.17;1.95;;;17.20;62.90;;;;;;10455309;28;20413;-57
2022/04/16 01:33:52;;;;;;;2.60;2.10;;;17.10;63.00;;;;;;10455201;28;20025;-56
2022/04/16 01:38:53;;;;;;;2.88;2.22;;;17.10;63.10;;;;;;10454853;28;20497;-57
2022/04/16 01:43:54;;;;;;;2.38;1.73;;;17.00;63.20;;;;;;10456191;28;20105;-58
2022/04/16 01:48:55;;;;;;;2.60;2.00;;;17.00;63.20;;;;;;10455814;28;20469;-57
2022/04/16 01:53:56;;;;;;;3.40;1.90;;;17.00;63.00;;;;;;10454264;28;20074;-57
2022/04/16 01:58:57;;;;;;;2.78;1.98;;;17.10;63.00;;;;;;10455733;28;20462;-56
2022/04/16 02:03:59;;;;;;;3.15;2.53;;;17.00;63.00;;;;;;10453887;28;20488;-56
2022/04/16 02:09:01;;;;;;;4.10;2.55;;;17.00;63.10;;;;;;10455226;28;20025;-56
2022/04/16 02:14:02;;;;;;;4.53;2.67;;;16.90;63.20;;;;;;10455072;28;20106;-57
2022/04/16 02:19:03;;;;;;;3.60;2.90;;;16.90;63.30;;;;;;10454770;28;20112;-57
2022/04/16 02:24:04;;;;;;;2.67;2.13;;;17.00;63.00;;;;;;10465085;28;20471;-56
2022/04/16 02:29:05;;;;;;;3.72;2.17;;;17.10;62.60;;;;;;10454316;28;20044;-57
2022/04/16 02:34:07;;;;;;;4.15;2.65;;;17.10;62.60;;;;;;10454528;28;20033;-56
2022/04/16 02:39:08;;;;;;;3.10;2.28;;;17.20;62.20;;;;;;10453129;28;20027;-56
2022/04/16 02:47:05;;;;;;;2.65;2.28;;;17.20;62.20;;;;;;10453209;28;20347;-57
2022/04/16 02:49:43;;;;;;;5.22;2.80;;;17.20;62.30;;;;;;10454155;28;20514;-57
2022/04/16 02:54:44;;;;;;;3.15;2.40;;;17.10;62.50;;;;;;10454300;28;20036;-57
2022/04/16 02:59:46;;;;;;;3.08;2.28;;;17.10;62.60;;;;;;10453608;28;20060;-57
2022/04/16 03:04:49;;;;;;;3.33;2.40;;;17.00;62.60;;;;;;10454245;28;20124;-57
2022/04/16 03:09:50;;;;;;;3.15;2.75;;;17.00;62.60;;;;;;10453600;28;20033;-57
2022/04/16 03:20:11;;;;;;;5.13;2.73;;;17.10;62.30;;;;;;10461691;28;20037;-57
2022/04/16 03:25:11;;;;;;;2.80;2.40;;;17.00;62.30;;;;;;10471967;28;20029;-57
2022/04/16 03:30:12;;;;;;;3.25;2.50;;;17.00;62.50;;;;;;10459923;28;20055;-56
2022/04/16 03:35:13;;;;;;;3.10;2.58;;;17.00;62.60;;;;;;10461263;28;20033;-56
2022/04/16 03:40:15;;;;;;;2.90;2.47;;;17.00;62.20;;;;;;10459550;28;20480;-57
2022/04/16 03:45:21;;;;;;;2.67;2.38;;;17.10;62.10;;;;;;10459737;28;20029;-56
2022/04/16 03:50:24;;;;;;;3.22;2.38;;;17.00;62.10;;;;;;10454712;28;20037;-57
2022/04/16 04:00:50;;;;;;;3.42;2.42;;;17.00;62.30;;;;;;10485316;28;20029;-56
2022/04/16 04:05:54;;;;;;;2.97;2.33;;;17.10;61.80;;;;;;10493672;28;20112;-56
2022/04/16 04:10:54;;;;;;;3.20;2.53;;;17.20;61.50;;;;;;10468755;28;20056;-57
2022/04/16 04:15:55;;;;;;;2.72;2.50;;;17.20;61.50;;;;;;10479148;28;20060;-56
2022/04/16 04:20:56;;;;;;;3.85;2.38;;;17.20;61.80;;;;;;10493210;28;20103;-57
2022/04/16 04:25:58;;;;;;;2.95;2.20;;;17.10;61.70;;;;;;10468271;28;20060;-56
2022/04/16 04:30:59;;;;;;;3.30;2.35;;;17.10;61.80;;;;;;10455559;28;20481;-56
2022/04/16 04:35:59;;;;;;;2.92;2.50;;;17.10;61.80;;;;;;10455689;28;20083;-55
2022/04/16 04:41:00;;;;;;;4.22;2.92;;;17.10;61.60;;;;;;10458552;28;20074;-55
2022/04/16 04:46:01;;;;;;;3.50;2.33;;;17.10;61.60;;;;;;10458315;28;20060;-57
2022/04/16 04:51:01;;;;;;;2.97;2.47;;;17.10;61.80;;;;;;10456141;28;20029;-58
2022/04/16 04:56:02;;;;;;;3.08;2.53;;;17.00;61.80;;;;;;10462024;28;20029;-57
2022/04/16 05:01:04;;;;;;;3.28;2.45;;;17.10;61.50;;;;;;10456919;28;20051;-58
2022/04/16 05:06:04;;;;;;;2.97;2.30;;;17.10;61.50;;;;;;10457653;28;20502;-57
2022/04/16 05:11:05;;;;;;;3.55;3.17;;;17.00;61.60;;;;;;10456592;28;20037;-57
2022/04/16 05:16:07;;;;;;;3.60;2.42;;;17.00;61.80;;;;;;10460098;28;20029;-55
2022/04/16 05:21:08;;;;;;;5.00;2.65;;;17.10;61.60;;;;;;10460849;28;20473;-55
2022/04/16 05:26:10;;;;;;;3.45;2.70;;;17.20;61.60;;;;;;10460243;28;20116;-56
2022/04/16 05:31:10;;;;;;;5.82;2.95;;;17.20;61.80;;;;;;10470736;28;21353;-55
2022/04/16 05:36:11;;;;;;;6.22;3.20;;;17.30;61.80;;;;;;10466947;28;20108;-53
2022/04/16 05:41:12;;;;;;;8.30;3.28;;;17.30;61.90;;;;;;10455732;28;20029;-48
2022/04/16 05:46:12;;;;;;;8.52;2.83;;;17.20;62.30;;;;;;10455730;28;20029;-54
2022/04/16 05:51:14;;;;;;;10.13;3.95;;;17.40;62.50;;;;;;10455887;28;20029;-50
2022/04/16 05:56:17;;;;;;;6.97;3.55;;;17.40;63.70;;;;;;10453295;28;20123;-54
2022/04/16 06:01:18;;;;;;;8.57;3.47;;;17.30;63.70;;;;;;10454099;28;20405;-53
2022/04/16 06:06:19;;;;;;;7.90;3.40;;;17.20;63.80;;;;;;10455200;28;20100;-49
2022/04/16 06:11:21;;;;;;;10.90;3.58;;;17.20;64.40;;;;;;10469975;28;20385;-49
2022/04/16 06:16:22;;;;;;;15.15;4.75;;;17.10;64.50;;;;;;10454781;28;20634;-52
2022/04/16 06:21:23;;;;;;;10.85;4.47;;;17.00;64.80;;;;;;10461805;28;20026;-55
2022/04/16 06:26:26;;;;;;;15.88;4.35;;;17.00;64.40;;;;;;10473898;28;20033;-57
2022/04/16 06:31:26;;;;;;;14.75;5.13;;;16.90;65.50;;;;;;10452629;28;20083;-56
2022/04/16 06:36:27;;;;;;;15.02;4.40;;;16.90;65.60;;;;;;10454351;28;20118;-55
2022/04/16 06:41:28;;;;;;;17.20;4.85;;;16.80;65.80;;;;;;10453913;28;20067;-53
2022/04/16 06:46:28;;;;;;;14.55;4.95;;;16.80;66.10;;;;;;10469240;28;20040;-55
2022/04/16 06:51:29;;;;;;;16.27;5.05;;;16.80;66.10;;;;;;10452769;28;20432;-54
2022/04/16 06:56:30;;;;;;;21.30;6.13;;;16.90;67.50;;;;;;10453165;28;20079;-55
2022/04/16 07:01:31;;;;;;;32.60;6.20;;;16.90;67.30;;;;;;10469171;28;20120;-54
2022/04/16 07:06:31;;;;;;;25.70;5.68;;;16.90;67.00;;;;;;10451358;28;20021;-57
2022/04/16 07:11:32;;;;;;;32.38;8.88;;;17.00;67.50;;;;;;10468470;28;20112;-55
2022/04/16 07:16:33;;;;;;;23.25;7.05;;;16.90;67.60;;;;;;10451723;28;20029;-51
2022/04/16 07:21:34;;;;;;;23.02;6.03;;;16.90;68.10;;;;;;10453740;28;20041;-54
2022/04/16 07:26:34;;;;;;;17.50;5.90;;;16.90;67.90;;;;;;10467386;28;20076;-55
2022/04/16 07:31:35;;;;;;;14.43;4.93;;;16.90;68.20;;;;;;10451729;28;20048;-50
2022/04/16 07:36:36;;;;;;;14.65;5.65;;;16.80;67.90;;;;;;10452773;28;20116;-56
2022/04/16 07:41:37;;;;;;;20.40;5.43;;;16.80;68.10;;;;;;10450995;28;20560;-54
2022/04/16 07:46:37;;;;;;;22.17;6.07;;;16.80;67.70;;;;;;10447281;28;20044;-56
2022/04/16 07:51:38;;;;;;;20.52;5.85;;;16.80;67.80;;;;;;10449941;28;20033;-57
2022/04/16 07:56:39;;;;;;;20.92;5.40;;;16.70;67.60;;;;;;10449615;28;20033;-57
2022/04/16 08:01:40;;;;;;;20.45;7.13;;;16.70;67.40;;;;;;10453080;28;20101;-56
2022/04/16 08:06:40;;;;;;;12.73;4.78;;;16.80;67.20;;;;;;10457808;28;20053;-56
2022/04/16 08:11:41;;;;;;;14.00;4.53;;;16.80;67.00;;;;;;10459171;28;20065;-56
2022/04/16 08:16:42;;;;;;;14.55;4.32;;;16.80;66.80;;;;;;10456904;28;20078;-55
2022/04/16 08:21:43;;;;;;;11.65;4.50;;;16.80;66.70;;;;;;10467114;28;20062;-54
2022/04/16 08:26:43;;;;;;;15.82;5.15;;;16.80;66.40;;;;;;10454084;28;20041;-50
2022/04/16 08:31:44;;;;;;;13.68;4.90;;;16.90;66.40;;;;;;10473456;28;20098;-49
2022/04/16 08:36:44;;;;;;;15.43;4.78;;;16.90;66.40;;;;;;10458401;28;20400;-49
2022/04/16 08:41:45;;;;;;;12.80;4.70;;;16.80;66.20;;;;;;10456658;28;20122;-52
2022/04/16 08:46:46;;;;;;;7.90;4.72;;;16.90;66.30;;;;;;10455041;28;20037;-55
2022/04/16 08:51:47;;;;;;;7.53;4.28;;;16.90;66.20;;;;;;10456395;28;20033;-50
2022/04/16 08:56:48;;;;;;;8.05;4.00;;;16.90;66.10;;;;;;10456913;28;20062;-49
2022/04/16 09:01:49;;;;;;;10.35;3.88;;;16.90;66.10;;;;;;10455639;28;20496;-49
2022/04/16 09:07:01;;;;;;;5.03;3.25;;;16.90;66.00;;;;;;10456903;28;20493;-49
2022/04/16 09:12:02;;;;;;;7.00;3.58;;;16.90;66.00;;;;;;10456385;28;20354;-51
2022/04/16 09:17:13;;;;;;;7.53;3.38;;;16.90;65.90;;;;;;10456392;28;20033;-50
2022/04/16 09:22:30;;;;;;;4.68;3.47;;;17.00;65.90;;;;;;10465864;28;20037;-51
2022/04/16 09:27:52;;;;;;;6.32;3.65;;;17.00;65.80;;;;;;10454585;28;20030;-49
2022/04/16 09:32:56;;;;;;;6.53;4.00;;;17.00;65.70;;;;;;10456220;28;20032;-54
2022/04/16 09:38:02;;;;;;;6.47;3.70;;;17.00;65.70;;;;;;10455625;28;20372;-51
2022/04/16 09:43:06;;;;;;;5.82;2.92;;;17.00;65.60;;;;;;10442537;28;20021;-50
2022/04/16 09:48:12;;;;;;;6.40;2.97;;;17.10;65.60;;;;;;10455304;28;20075;-50
2022/04/16 09:53:13;;;;;;;6.35;3.47;;;17.10;65.40;;;;;;10455246;28;20037;-51
2022/04/16 09:58:16;;;;;;;9.73;3.60;;;17.00;65.40;;;;;;10454409;28;20537;-50
2022/04/16 10:03:17;;;;;;;6.07;4.32;;;17.10;65.30;;;;;;10453661;28;20091;-51
2022/04/16 10:08:18;;;;;;;6.55;3.72;;;17.10;65.20;;;;;;10454554;28;20055;-53
2022/04/16 10:13:20;;;;;;;6.88;3.75;;;17.20;65.00;;;;;;10453371;28;20048;-49
2022/04/16 10:18:21;;;;;;;6.57;3.20;;;17.20;65.00;;;;;;10452500;28;20025;-52
2022/04/16 10:23:40;;;;;;;6.63;3.38;;;17.30;65.00;;;;;;10459490;28;20029;-52
2022/04/16 10:28:58;;;;;;;5.63;2.95;;;17.30;65.00;;;;;;10453642;28;20128;-48
2022/04/16 10:34:11;;;;;;;6.10;3.20;;;17.30;64.80;;;;;;10452857;28;20025;-49
2022/04/16 10:39:17;;;;;;;5.45;3.03;;;17.30;65.00;;;;;;10453205;28;20031;-50
2022/04/16 10:44:18;;;;;;;4.88;3.47;;;17.40;64.80;;;;;;10465301;28;20091;-49
2022/04/16 10:49:23;;;;;;;20.35;3.63;;;17.40;64.70;;;;;;10453810;28;20025;-52
2022/04/16 10:54:32;;;;;;;9.98;3.22;;;17.50;64.40;;;;;;10453882;28;20028;-48
2022/04/16 10:59:45;;;;;;;8.98;3.55;;;17.50;64.60;;;;;;10453769;28;20415;-47
2022/04/16 11:05:14;;;;;;;10.48;3.80;;;17.60;64.80;;;;;;10454513;28;20025;-48
2022/04/16 11:10:23;;;;;;;6.75;3.00;;;17.70;65.00;;;;;;10447301;28;20401;-51
2022/04/16 11:15:24;;;;;;;8.18;3.28;;;17.70;65.00;;;;;;10453547;28;20025;-52
2022/04/16 11:20:27;;;;;;;11.55;3.72;;;17.80;65.20;;;;;;10451625;28;20432;-51
2022/04/16 11:34:14;;;;;;;7.72;3.15;;;17.80;65.40;;;;;;10452660;28;20108;-48
2022/04/16 11:36:11;;;;;;;13.77;3.57;;;17.90;65.00;;;;;;10457923;28;20049;-53
2022/04/16 11:41:12;;;;;;;13.88;4.65;;;17.90;64.70;;;;;;10475319;28;20028;-56
2022/04/16 11:46:14;;;;;;;18.30;4.88;;;17.90;64.80;;;;;;10460906;28;20036;-57
2022/04/16 11:51:18;;;;;;;17.90;4.70;;;18.00;64.40;;;;;;10455525;28;20056;-52
2022/04/16 11:56:26;;;;;;;22.95;4.82;;;18.10;64.30;;;;;;10475242;28;20155;-56
2022/04/16 12:01:27;;;;;;;16.90;5.00;;;18.00;63.80;;;;;;10459671;28;20029;-55
2022/04/16 12:06:28;;;;;;;14.23;4.53;;;18.00;63.60;;;;;;10460111;28;20359;-55
2022/04/16 12:11:29;;;;;;;12.32;4.25;;;17.90;63.40;;;;;;10457501;28;20119;-53
2022/04/16 12:16:39;;;;;;;15.13;3.70;;;18.00;63.40;;;;;;10459891;28;20037;-54
2022/04/16 12:21:43;;;;;;;8.45;3.47;;;18.00;63.40;;;;;;10467307;28;20037;-54
2022/04/16 12:26:50;;;;;;;7.75;3.10;;;18.00;63.40;;;;;;10460414;28;20090;-54
2022/04/16 12:31:57;;;;;;;11.38;3.13;;;18.00;63.30;;;;;;10446825;28;20091;-54
2022/04/16 12:36:58;;;;;;;11.43;3.47;;;18.00;63.30;;;;;;10458545;28;20033;-54
2022/04/16 12:41:59;;;;;;;9.27;3.15;;;18.00;63.10;;;;;;10458750;28;20493;-54
2022/04/16 12:46:59;;;;;;;9.25;3.33;;;18.10;63.20;;;;;;10457346;28;20072;-55
2022/04/16 12:52:00;;;;;;;11.20;3.40;;;18.10;63.20;;;;;;10458433;28;20045;-55
2022/04/16 12:57:01;;;;;;;9.05;3.33;;;18.10;63.20;;;;;;10457899;28;20100;-55
2022/04/16 13:02:02;;;;;;;7.32;2.53;;;18.10;63.10;;;;;;10457686;28;20060;-54
2022/04/16 13:07:03;;;;;;;7.18;2.55;;;18.10;63.10;;;;;;10456392;28;20040;-55
2022/04/16 13:12:04;;;;;;;6.20;2.80;;;18.10;63.00;;;;;;10457016;28;20111;-54
2022/04/16 13:17:04;;;;;;;5.28;2.85;;;18.10;63.00;;;;;;10457221;28;20123;-55
2022/04/16 13:22:05;;;;;;;4.55;2.28;;;18.10;62.90;;;;;;10466354;28;20515;-53
2022/04/16 13:27:06;;;;;;;5.28;2.60;;;18.10;62.90;;;;;;10455484;28;20039;-53
2022/04/16 13:32:08;;;;;;;4.47;2.75;;;18.20;62.80;;;;;;10455274;28;20567;-53
2022/04/16 13:37:12;;;;;;;5.25;2.55;;;18.20;62.70;;;;;;10456271;28;20044;-54
2022/04/16 13:42:14;;;;;;;4.30;2.20;;;18.20;62.60;;;;;;10456286;28;20488;-54
2022/04/16 13:47:17;;;;;;;4.38;1.80;;;18.20;62.60;;;;;;10454790;28;20036;-55
2022/04/16 13:52:18;;;;;;;4.82;2.25;;;18.20;62.50;;;;;;10455891;28;20035;-54
2022/04/16 13:57:18;;;;;;;5.05;2.28;;;18.30;62.40;;;;;;10454545;28;20029;-53
2022/04/16 14:02:19;;;;;;;7.47;2.88;;;18.20;62.40;;;;;;10455581;28;20060;-53
2022/04/16 14:07:20;;;;;;;4.18;1.92;;;18.30;62.40;;;;;;10453893;28;20080;-52
2022/04/16 14:12:21;;;;;;;5.15;2.05;;;18.30;62.30;;;;;;10455430;28;20171;-52
2022/04/16 14:17:21;;;;;;;4.55;2.58;;;18.30;62.20;;;;;;10455017;28;20114;-53
2022/04/16 14:22:22;;;;;;;5.80;2.00;;;18.30;62.10;;;;;;10464204;28;20035;-54
2022/04/16 14:27:23;;;;;;;4.00;2.10;;;18.30;62.10;;;;;;10453056;28;20079;-54
2022/04/16 14:32:24;;;;;;;4.95;1.95;;;18.30;62.10;;;;;;10454479;28;20094;-52
2022/04/16 14:37:26;;;;;;;3.65;1.83;;;18.30;62.20;;;;;;10454282;28;20412;-53
2022/04/16 14:42:28;;;;;;;4.13;1.70;;;18.30;62.20;;;;;;10448557;28;20481;-52
2022/04/16 14:47:31;;;;;;;13.07;3.00;;;18.20;62.10;;;;;;10454207;28;20469;-55
2022/04/16 14:52:32;;;;;;;6.88;2.20;;;18.20;62.40;;;;;;10448531;28;20059;-54
2022/04/16 14:57:34;;;;;;;18.42;4.25;;;18.30;61.80;;;;;;10451547;28;20431;-53
2022/04/16 15:02:34;;;;;;;17.73;4.88;;;18.30;61.30;;;;;;10453515;28;20032;-49
2022/04/16 15:07:35;;;;;;;21.63;3.95;;;18.30;61.30;;;;;;10450595;28;20071;-51
2022/04/16 15:12:36;;;;;;;18.00;4.15;;;18.30;61.30;;;;;;10460593;28;20374;-53
2022/04/16 15:17:39;;;;;;;11.95;3.25;;;18.30;61.20;;;;;;10459579;28;20079;-54
2022/04/16 15:22:40;;;;;;;18.75;4.95;;;18.20;61.20;;;;;;10472359;28;20083;-53
2022/04/16 15:27:41;;;;;;;23.42;4.05;;;18.20;61.10;;;;;;10461384;28;20163;-46
2022/04/16 15:32:41;;;;;;;13.90;5.68;;;18.20;61.10;;;;;;10461393;28;20553;-50
2022/04/16 15:37:42;;;;;;;16.67;4.65;;;18.20;65.80;;;;;;10449053;28;20044;-48
2022/04/16 15:42:43;;;;;;;17.95;5.75;;;18.20;63.70;;;;;;10457499;28;20064;-48
2022/04/16 15:47:44;;;;;;;21.00;5.68;;;18.30;64.60;;;;;;10460497;28;20107;-54
2022/04/16 15:52:45;;;;;;;20.65;4.60;;;18.50;63.40;;;;;;10459639;28;20039;-48
2022/04/16 15:57:46;;;;;;;18.65;4.30;;;18.70;64.10;;;;;;10459163;28;20025;-48
2022/04/16 16:02:47;;;;;;;23.45;5.60;;;18.80;66.70;;;;;;10460318;28;20025;-50
2022/04/16 16:07:47;;;;;;;21.17;5.85;;;18.80;69.20;;;;;;10459966;28;20120;-47
2022/04/16 16:12:48;;;;;;;18.23;5.10;;;18.90;68.20;;;;;;10459943;28;20496;-52
2022/04/16 16:17:49;;;;;;;11.98;3.83;;;19.20;66.70;;;;;;10459600;28;20128;-52
2022/04/16 16:22:51;;;;;;;14.90;4.03;;;19.10;67.20;;;;;;10469426;28;20053;-53
2022/04/16 16:27:51;;;;;;;13.30;4.20;;;19.10;68.10;;;;;;10459313;28;20036;-53
2022/04/16 16:32:52;;;;;;;14.48;5.82;;;19.10;68.70;;;;;;10459030;28;20028;-55
2022/04/16 16:37:53;;;;;;;16.08;6.05;;;19.00;70.10;;;;;;10457846;28;20424;-57
2022/04/16 16:42:55;;;;;;;19.52;6.25;;;19.00;70.80;;;;;;10458469;28;20021;-55
2022/04/16 16:47:56;;;;;;;16.02;5.45;;;19.10;71.20;;;;;;10458623;28;20076;-55
2022/04/16 16:52:57;;;;;;;24.10;6.65;;;19.00;71.50;;;;;;10458327;28;20033;-52
2022/04/16 16:57:57;;;;;;;25.90;6.63;;;19.10;71.60;;;;;;10457924;28;20112;-50
2022/04/16 17:08:19;;;;;;;20.23;7.20;;;19.20;70.60;;;;;;10456713;28;20037;-52
2022/04/16 17:13:19;;;;;;;21.55;5.85;;;19.20;70.60;;;;;;10456713;28;20268;-55
2022/04/16 17:23:40;;;;;;;20.93;6.83;;;19.10;70.30;;;;;;10468387;28;20037;-51
2022/04/16 17:28:41;;;;;;;24.25;6.57;;;19.10;70.50;;;;;;10455926;28;20818;-53
2022/04/16 17:33:42;;;;;;;22.02;6.22;;;19.00;70.30;;;;;;10455579;28;20041;-50
2022/04/16 17:38:42;;;;;;;16.77;6.25;;;19.00;70.40;;;;;;10455695;28;20083;-53
2022/04/16 17:43:43;;;;;;;15.25;5.75;;;19.10;70.60;;;;;;10455982;28;20047;-52
2022/04/16 17:48:45;;;;;;;24.85;8.05;;;19.00;70.50;;;;;;10452534;28;20064;-50
2022/04/16 17:53:45;;;;;;;16.83;7.18;;;19.20;69.20;;;;;;10455146;28;20124;-50
2022/04/16 17:58:46;;;;;;;19.50;4.95;;;19.00;66.70;;;;;;10455386;28;20036;-49
2022/04/16 18:03:47;;;;;;;18.70;5.90;;;18.60;66.80;;;;;;10455425;28;20096;-51
2022/04/16 18:08:47;;;;;;;11.93;4.22;;;18.40;66.80;;;;;;10455332;28;20492;-49
2022/04/16 18:13:49;;;;;;;14.98;3.58;;;18.40;66.80;;;;;;10455538;28;20064;-51
2022/04/16 18:18:50;;;;;;;13.68;3.47;;;18.40;65.30;;;;;;10453427;28;20469;-53
2022/04/16 18:23:51;;;;;;;9.05;3.25;;;18.40;63.70;;;;;;10455068;28;20025;-54
2022/04/16 18:28:53;;;;;;;10.95;3.00;;;18.30;63.90;;;;;;10468470;28;20078;-54
2022/04/16 18:33:54;;;;;;;17.85;3.45;;;18.30;64.50;;;;;;10452651;28;20025;-54
2022/04/16 18:38:56;;;;;;;9.23;2.88;;;18.20;65.20;;;;;;10452944;28;20477;-55
2022/04/16 18:43:57;;;;;;;8.55;2.90;;;18.20;65.30;;;;;;10452160;28;20107;-53
2022/04/16 18:48:58;;;;;;;10.95;3.13;;;18.10;65.50;;;;;;10452935;28;20052;-54
2022/04/16 18:53:59;;;;;;;9.82;2.47;;;18.20;65.50;;;;;;10452508;28;20098;-56
2022/04/16 18:58:59;;;;;;;8.27;2.78;;;18.10;65.40;;;;;;10456770;28;20428;-56
2022/04/16 19:09:28;;;;;;;13.63;2.53;;;18.10;65.50;;;;;;10462378;28;20040;-56
2022/04/16 19:14:33;;;;;;;;;;;18.10;65.60;;;;;;10453326;28;20083;-56
2022/04/16 19:19:41;;;;;;;7.20;2.33;;;18.10;65.50;;;;;;10450743;28;19959;-56
2022/04/16 19:24:43;;;;;;;5.72;1.90;;;18.00;65.40;;;;;;10458928;28;20421;-57
2022/04/16 19:29:43;;;;;;;6.75;2.20;;;18.00;65.30;;;;;;10471325;28;20060;-56
2022/04/16 19:34:44;;;;;;;9.77;2.75;;;18.00;65.20;;;;;;10453136;28;20408;-57
2022/04/16 19:39:45;;;;;;;6.32;2.20;;;18.00;65.10;;;;;;10468753;28;20104;-56
2022/04/16 19:44:45;;;;;;;5.85;2.25;;;18.00;65.10;;;;;;10453278;28;20060;-57
2022/04/16 19:49:46;;;;;;;6.45;2.63;;;18.00;65.10;;;;;;10468243;28;20060;-56
2022/04/16 19:54:47;;;;;;;6.00;1.90;;;18.00;65.00;;;;;;10454027;28;20052;-57
2022/04/16 19:59:47;;;;;;;5.97;2.25;;;17.90;64.80;;;;;;10460242;28;20049;-57
2022/04/16 20:04:48;;;;;;;5.97;2.25;;;17.90;64.70;;;;;;10460374;28;20071;-56
2022/04/16 20:15:14;;;;;;;3.30;1.48;;;17.90;64.60;;;;;;10459649;28;20382;-57
2022/04/16 20:20:15;;;;;;;5.60;1.75;;;17.90;64.50;;;;;;10459689;28;20029;-57
2022/04/16 20:25:20;;;;;;;5.07;1.77;;;17.90;65.00;;;;;;10470371;28;20021;-57
2022/04/16 20:30:20;;;;;;;4.05;2.00;;;17.90;64.50;;;;;;10457689;28;20044;-56
2022/04/16 20:35:21;;;;;;;5.68;2.10;;;17.90;64.40;;;;;;10458901;28;20103;-56
2022/04/16 20:45:41;;;;;;;4.37;2.17;;;17.90;64.30;;;;;;10457849;28;20432;-56
2022/04/16 20:53:14;;;;;;;3.95;1.42;;;17.90;64.30;;;;;;10458480;28;20036;-56
2022/04/16 20:56:03;;;;;;;3.38;2.05;;;17.90;64.40;;;;;;10458326;28;20114;-56
2022/04/16 21:01:04;;;;;;;3.15;1.60;;;17.80;64.50;;;;;;10457956;28;20037;-56
2022/04/16 21:06:05;;;;;;;4.95;1.27;;;17.80;64.50;;;;;;10456221;28;20040;-56
2022/04/16 21:11:06;;;;;;;3.25;1.10;;;17.80;64.50;;;;;;10458013;28;20053;-56
2022/04/16 21:16:06;;;;;;;2.78;1.42;;;17.80;64.40;;;;;;10473022;28;20108;-56
2022/04/16 21:21:07;;;;;;;4.03;1.20;;;17.80;64.40;;;;;;10461957;28;20552;-56
2022/04/16 21:26:08;;;;;;;2.95;1.10;;;17.80;64.50;;;;;;10478792;28;20056;-56
2022/04/16 21:31:09;;;;;;;3.28;1.20;;;17.80;64.20;;;;;;10456938;28;20080;-56
2022/04/16 21:36:09;;;;;;;3.60;1.42;;;17.80;64.20;;;;;;10456848;28;20025;-57
2022/04/16 21:41:10;;;;;;;4.30;1.45;;;17.70;64.00;;;;;;10456762;28;20124;-56
2022/04/16 21:46:10;;;;;;;3.05;1.73;;;17.70;64.00;;;;;;10454811;28;20067;-56
2022/04/16 21:51:11;;;;;;;3.03;0.90;;;17.70;63.90;;;;;;10456153;28;20121;-56
2022/04/16 21:56:13;;;;;;;3.28;0.85;;;17.70;64.00;;;;;;10455710;28;20041;-57
2022/04/16 22:01:37;;;;;;;2.90;1.13;;;17.70;64.00;;;;;;10455913;28;20029;-56
2022/04/16 22:06:37;;;;;;;3.70;1.48;;;17.60;64.40;;;;;;10455745;28;20512;-56
2022/04/16 22:11:39;;;;;;;2.10;1.15;;;17.70;63.90;;;;;;10455384;28;20115;-56
2022/04/16 22:16:39;;;;;;;2.20;0.98;;;17.60;63.70;;;;;;10455244;28;20199;-56
2022/04/16 22:21:42;;;;;;;5.93;1.33;;;17.60;63.50;;;;;;10463922;28;20087;-57
2022/04/16 22:26:42;;;;;;;2.30;1.00;;;17.60;63.20;;;;;;10455611;28;20033;-56
2022/04/16 22:31:43;;;;;;;3.45;0.90;;;17.60;63.10;;;;;;10454543;28;20429;-56
2022/04/16 22:42:03;;;;;;;3.03;0.90;;;17.60;63.40;;;;;;10454657;28;20088;-56
2022/04/16 22:47:03;;;;;;;4.68;1.13;;;17.60;63.40;;;;;;10454660;28;20029;-57
2022/04/16 22:52:05;;;;;;;3.28;1.45;;;17.60;63.30;;;;;;10452884;28;20108;-56
2022/04/16 22:57:05;;;;;;;1.45;0.82;;;17.50;63.40;;;;;;10454106;28;20047;-56
2022/04/16 23:02:06;;;;;;;1.98;1.10;;;17.50;63.20;;;;;;10452858;28;20028;-56
2022/04/16 23:07:07;;;;;;;3.00;1.17;;;17.50;63.30;;;;;;10454274;28;20059;-56
2022/04/16 23:12:08;;;;;;;2.20;0.98;;;17.50;63.30;;;;;;10453996;28;20029;-56
2022/04/16 23:17:09;;;;;;;5.70;1.15;;;17.50;63.20;;;;;;10453402;28;20025;-56
2022/04/16 23:22:10;;;;;;;2.22;0.88;;;17.50;63.10;;;;;;10463680;28;20028;-56
2022/04/16 23:27:11;;;;;;;2.05;1.45;;;17.50;63.10;;;;;;10452158;28;20766;-56
2022/04/16 23:32:11;;;;;;;2.40;1.27;;;17.50;63.10;;;;;;10457552;28;20100;-55
2022/04/16 23:37:12;;;;;;;3.03;1.30;;;17.50;63.10;;;;;;10461566;28;20505;-56
2022/04/16 23:42:13;;;;;;;4.55;1.10;;;17.50;63.10;;;;;;10460980;28;20059;-56
2022/04/16 23:47:13;;;;;;;1.85;1.33;;;17.40;62.90;;;;;;10459941;28;20111;-56
2022/04/16 23:52:14;;;;;;;2.70;1.20;;;17.50;62.90;;;;;;10461168;28;20476;-56
2022/04/16 23:57:15;;;;;;;1.77;0.98;;;17.40;62.80;;;;;;10460057;28;20072;-56
